Terminal Aerodrome Forecast
Issued by NWS Grand Forks, ND

Home | Current Version | Previous Version | Text Only | Print | Product List | Glossary On
Versions: 1 2 3 4 5 6 7 8 9 10 11 12 13 14 15
925
FTUS43 KFGF 192328
TAFGFK
TAF
KGFK 192328Z 2000/2024 18010KT 3SM BR OVC002
      TEMPO 2000/2002 3/4SM BR
     FM200200 17010KT 1SM BR OVC003
      TEMPO 2002/2006 1/2SM FG
     FM200600 17010KT 1/2SM FG OVC003
      TEMPO 2010/2014 1/4SM FG
     FM201600 15008KT 1SM BR BKN003
     FM201800 16008KT P6SM OVC003=

USA.gov is the U.S. government's official web portal to all federal, state and local government web resources and services.